Station: Coen Airport  

  Atmospheric Gas Attenuation - ITU Rec 676-11   ----------------- dB/100km -----------------
Date Time Temp RH % AH g/m3 Dew Point Wind Direction Speed kph Gust kph Barometer mB Rainfall Since 9am 24GHz 47GHz 76GHz 122GHz 134GHz 241GHz
08/05 12:30 30.1 57 17.38 20.9 17 28 1011.4 0 37.1 34.8 65.1 172.2 187.0 650.0
08/05 12:20 29.4 61 17.91 21.1 15 20 1011.6 0 38.2 36.0 68.0 179.8 196.2 681.8
08/05 12:10 29.3 59 17.23 20.5 17 24 1011.6 0 36.8 34.9 65.2 172.3 186.9 649.6
08/05 12:00 29.4 61 17.91 21.1 19 33 1011.8 0 38.2 36.0 68.0 179.9 196.2 681.9
08/05 11:50 29.4 58 17.03 20.5 22 30 1012 0 36.4 34.5 64.3 169.9 184.0 639.3
08/05 11:40 30.1 57 17.38 20.9 11 17 1012.1 0 37.0 34.8 65.2 172.3 187.1 650.3
08/05 11:30 30.1 59 17.99 21.2 17 24 1012.1 0 38.3 35.9 67.7 179.2 195.6 679.8
08/05 11:20 29 59 16.95 20.4 19 22 1012.4 0 36.2 34.6 64.3 169.9 183.9 639.0
08/05 11:10 29.4 56 16.44 19.7 20 24 1012.6 0 35.1 33.5 61.8 163.4 176.0 611.5
08/05 11:00 29.4 61 17.91 21.1 17 30 1012.5 0 38.2 36.1 68.0 180.0 196.3 682.3
08/05 10:50 28.8 60 17.05 20.3 20 26 1012.8 0 36.5 34.8 64.9 171.6 185.8 645.6
08/05 10:40 29 62 17.81 21 17 26 1012.8 0 38.0 36.1 68.0 179.8 196.0 681.0
08/05 10:30 27.9 65 17.58 20.7 19 24 1012.9 0 37.7 36.1 68.0 179.7 195.5 679.4
08/05 10:20 28.1 63 17.23 20.4 20 24 1013 0 36.9 35.4 66.3 175.2 190.1 660.4
08/05 10:10 28 61 16.59 20 19 26 1012.9 0 35.6 34.4 63.6 168.1 181.4 630.0
08/05 10:00 27.8 64 17.22 20.4 17 26 1012.8 0 36.9 35.5 66.5 175.7 190.7 662.4
08/05 09:50 26.8 68 17.31 20.4 15 15 1013 0 37.2 36.1 67.7 179.1 194.5 675.6
08/05 09:40 28.2 63 17.32 20.7 20 26 1013 0 37.1 35.5 66.6 176.0 191.1 664.0
08/05 09:30 27.6 64 17.03 20.2 17 32 1012.9 0 36.5 35.3 65.8 174.0 188.5 654.8
08/05 09:20 27.7 65 17.39 20.5 11 15 1013 0 37.3 35.9 67.3 178.0 193.4 671.8
08/05 09:10 27.3 69 18.06 21.1 15 20 1012.9 0 38.7 37.2 70.6 186.8 204.0 708.9
08/05 09:00 27 69 17.76 20.8 13 20 1012.9 0 38.1 36.8 69.6 183.9 200.5 696.5
08/05 08:50 25.6 77 18.33 21.3 0 4 1013 0 39.5 38.5 73.4 194.3 212.8 739.0
08/05 08:40 24.6 79 17.78 20.7 0 0 1012.9 0 38.4 37.9 71.9 190.0 207.3 719.8
08/05 08:30 24.1 82 17.94 20.8 0 0 1012.7 0 38.8 38.4 73.1 193.2 211.1 732.9
08/05 08:20 23.6 83 17.65 20.5 0 0 1012.7 0 38.2 38.1 72.2 190.9 208.0 722.3
08/05 08:10 23.3 86 17.98 20.8 9 9 1012.6 0 39.0 38.9 74.0 195.8 213.9 742.8
08/05 08:00 22.9 84 17.17 20.1 9 13 1012.5 0 37.3 37.5 70.6 186.7 202.6 703.4
08/05 07:50 22.6 87 17.48 20.3 9 11 1012.7 0 38.0 38.3 72.4 191.3 208.2 722.8
08/05 07:40 22.9 85 17.37 20.2 7 9 1012.7 0 37.7 37.9 71.6 189.2 205.7 714.1
08/05 07:30 22.7 88 17.78 20.6 7 11 1012.5 0 38.6 38.8 73.7 194.8 212.5 737.9
08/05 07:20 21.8 89 17.07 19.9 9 11 1012.4 0 37.2 37.8 71.2 188.1 204.1 708.3
08/05 07:10 21.7 89 16.98 19.8 11 13 1012.3 0 37.0 37.7 70.8 187.2 203.0 704.4
08/05 07:00 21.3 91 16.96 19.8 6 11 1012.1 0 37.0 37.8 71.1 187.9 203.7 707.0
08/05 06:50 21.1 91 16.77 19.6 6 7 1012.1 0 36.6 37.6 70.4 186.1 201.3 698.6
08/05 06:40 20.8 93 16.84 19.6 0 0 1011.9 0 36.8 37.8 71.0 187.6 203.2 705.1
08/05 06:30 20.5 94 16.72 19.5 0 0 1011.8 0 36.5 37.7 70.7 186.9 202.1 701.4
08/05 06:20 20.4 93 16.45 19.2 0 0 1011.9 0 36.0 37.3 69.5 183.7 198.3 687.8
08/05 06:10 20.3 93 16.35 19.1 0 0 1011.8 0 35.8 37.1 69.1 182.7 197.0 683.3
08/05 06:00 20.3 94 16.53 19.3 0 6 1011.6 0 36.2 37.5 70.0 184.9 199.7 692.9
08/05 05:50 20.4 93 16.45 19.2 7 7 1011.7 0 36.0 37.3 69.5 183.7 198.2 687.7
08/05 05:40 20.5 94 16.72 19.5 0 0 1011.6 0 36.5 37.7 70.7 186.8 202.1 701.3
08/05 05:30 20.2 94 16.43 19.2 0 6 1011.4 0 35.9 37.3 69.6 183.9 198.4 688.3
08/05 05:20 20.3 94 16.53 19.3 0 0 1011.6 0 36.2 37.5 70.0 184.9 199.7 692.9
08/05 05:10 20.4 93 16.45 19.2 0 0 1011.6 0 36.0 37.3 69.5 183.7 198.2 687.7
08/05 05:00 20.6 92 16.46 19.3 0 0 1011.5 0 36.0 37.2 69.3 183.3 197.8 686.3
08/05 04:50 20.6 93 16.64 19.4 0 0 1011.5 0 36.4 37.5 70.2 185.6 200.6 696.0
08/05 04:40 20.6 93 16.64 19.4 6 9 1011.5 0 36.4 37.5 70.2 185.6 200.6 696.0
08/05 04:30 20.5 93 16.55 19.3 6 11 1011.3 0 36.2 37.4 69.9 184.6 199.4 692.0
08/05 04:20 20.7 93 16.74 19.5 0 0 1011.5 0 36.6 37.7 70.6 186.6 201.9 700.4
08/05 04:10 20.6 93 16.64 19.4 0 0 1011.5 0 36.4 37.5 70.2 185.6 200.6 696.0
08/05 04:00 20.5 94 16.72 19.5 9 13 1011.3 0 36.5 37.7 70.7 186.8 202.1 701.1
08/05 03:50 20.6 93 16.64 19.4 11 11 1011.4 0 36.4 37.5 70.2 185.5 200.6 695.9
08/05 03:40 20.8 92 16.66 19.5 9 11 1011.4 0 36.4 37.5 70.1 185.3 200.3 695.2
08/05 03:30 21.3 90 16.77 19.6 6 9 1011.4 0 36.6 37.5 70.2 185.5 200.7 696.4
08/05 03:20 21.4 91 17.06 19.9 0 0 1011.5 0 37.2 38.0 71.4 188.9 204.9 711.1
08/05 03:10 21.4 92 17.25 20 0 0 1011.5 0 37.6 38.3 72.3 191.3 207.9 721.4
08/05 03:00 21.5 91 17.16 20 6 7 1011.3 0 37.4 38.1 71.8 189.8 206.1 715.4
08/05 02:50 21.7 91 17.36 20.2 4 6 1011.5 0 37.8 38.4 72.6 191.9 208.7 724.4
08/05 02:40 21.9 90 17.37 20.2 4 7 1011.5 0 37.8 38.3 72.4 191.5 208.3 723.0
08/05 02:30 22.4 89 17.67 20.5 7 9 1011.4 0 38.4 38.7 73.4 194.0 211.5 734.3
08/05 02:20 22.6 89 17.88 20.7 7 7 1011.5 0 38.8 39.0 74.2 196.1 214.2 743.7
08/05 02:10 22.2 89 17.47 20.3 0 0 1011.6 0 38.0 38.4 72.6 192.0 209.0 725.6
08/05 02:00 22.5 88 17.58 20.4 0 0 1011.6 0 38.2 38.4 72.9 192.6 209.9 728.6
08/05 01:50 22.5 88 17.58 20.4 0 0 1011.7 0 38.2 38.5 72.9 192.7 209.9 728.7
08/05 01:40 22.9 87 17.78 20.6 0 0 1011.8 0 38.6 38.7 73.4 194.2 211.9 735.6
08/05 01:30 22.9 87 17.78 20.6 2 7 1011.7 0 38.6 38.6 73.4 194.1 211.9 735.5
08/05 01:20 23.4 87 18.29 21.1 4 6 1012 0 39.6 39.4 75.4 199.3 218.3 758.2
08/05 01:10 23.8 84 18.07 20.9 0 0 1012.1 0 39.1 38.8 73.9 195.5 213.8 742.4
08/05 01:00 24.1 83 18.16 21 0 0 1012.1 0 39.3 38.8 74.1 195.9 214.3 744.3
08/05 00:50 24.1 84 18.38 21.2 0 0 1012.3 0 39.7 39.3 75.1 198.7 217.7 756.1
08/05 00:40 24.1 85 18.6 21.4 0 0 1012.5 0 40.2 39.7 76.2 201.5 221.2 768.0
08/05 00:30 24.2 83 18.26 21.1 0 6 1012.3 0 39.5 39.0 74.4 196.9 215.6 748.7
08/05 00:20 23.9 88 19.04 21.8 4 6 1012.5 0 41.2 40.6 78.5 207.6 228.6 794.0
08/05 00:10 23.9 87 18.82 21.6 0 0 1012.5 0 40.7 40.2 77.4 204.8 225.2 782.0
08/05 00:00 23.9 87 18.82 21.6 0 7 1012.5 0 40.7 40.2 77.4 204.8 225.2 782.0
07/05 23:50 23.9 87 18.82 21.6 0 0 1012.6 0 40.7 40.2 77.4 204.8 225.2 782.1
07/05 23:40 23.8 87 18.71 21.5 9 11 1012.6 0 40.5 40.0 77.0 203.7 223.8 777.1
07/05 23:30 23.4 88 18.5 21.3 2 9 1012.6 0 40.1 39.8 76.4 202.1 221.7 769.8
07/05 23:20 23.5 88 18.61 21.4 0 0 1012.6 0 40.3 40.0 76.8 203.2 223.1 774.8
07/05 23:10 23.3 89 18.61 21.4 0 0 1012.8 0 40.3 40.1 77.0 203.8 223.8 777.0
07/05 23:00 23.2 88 18.29 21.1 0 0 1012.6 0 39.6 39.5 75.6 199.9 219.0 760.5
07/05 22:50 22.9 87 17.78 20.6 0 0 1012.7 0 38.6 38.7 73.5 194.3 212.0 736.0
07/05 22:40 23 86 17.68 20.5 0 0 1012.7 0 38.4 38.5 72.9 192.8 210.2 729.7
07/05 22:30 23.2 85 17.67 20.5 0 0 1012.7 0 38.3 38.3 72.7 192.2 209.5 727.2
07/05 22:20 23.5 84 17.76 20.6 0 0 1012.9 0 38.5 38.4 72.8 192.5 210.0 729.2
07/05 22:10 23.5 83 17.55 20.4 0 0 1013 0 38.0 38.0 71.8 190.0 206.8 718.1
07/05 22:00 23.5 84 17.76 20.6 6 9 1012.9 0 38.5 38.4 72.8 192.5 210.0 729.2
07/05 21:50 23.8 81 17.42 20.3 7 9 1013 0 37.7 37.6 71.0 187.6 204.1 708.5
07/05 21:40 23.9 81 17.52 20.4 11 13 1013 0 37.9 37.8 71.3 188.6 205.3 712.8
07/05 21:30 23.9 81 17.52 20.4 9 13 1012.9 0 37.9 37.8 71.3 188.6 205.3 712.7
07/05 21:20 23.7 81 17.32 20.2 9 11 1013 0 37.5 37.5 70.6 186.6 202.8 704.2
07/05 21:10 23.8 81 17.42 20.3 7 9 1013 0 37.7 37.6 71.0 187.6 204.1 708.5
07/05 21:00 23.3 84 17.56 20.4 4 11 1012.8 0 38.1 38.1 72.1 190.5 207.5 720.5
07/05 20:50 23.4 83 17.45 20.3 0 0 1012.8 0 37.8 37.8 71.5 188.9 205.6 713.7
07/05 20:40 23.6 81 17.23 20.1 0 0 1012.9 0 37.3 37.4 70.3 185.8 201.7 700.3
07/05 20:30 24.2 78 17.16 20.1 2 7 1012.7 0 37.1 37.0 69.4 183.4 199.0 691.1
07/05 20:20 24.3 78 17.26 20.2 7 7 1012.7 0 37.3 37.1 69.7 184.4 200.3 695.4
07/05 20:10 24.2 78 17.16 20.1 7 9 1012.8 0 37.1 37.0 69.4 183.4 199.1 691.1
07/05 20:00 24.5 76 17.01 20 6 13 1012.5 0 36.8 36.5 68.4 180.9 196.0 680.5

Last Refresh: 08-May-2026 12:07:18

Bureau of Meteorology